Map

Track Data

SID SEASON NUMBER BASIN SUBBASIN NAME ISO_TIME NATURE LAT LON WMO_WIND WMO_PRES WMO_AGENCY TRACK_TYPE DIST2LAND LANDFALL IFLAG USA_AGENCY USA_ATCF_ID USA_LAT USA_LON USA_RECORD USA_STATUS USA_WIND USA_PRES USA_SSHS USA_R34_NE USA_R34_SE USA_R34_SW USA_R34_NW USA_R50_NE USA_R50_SE USA_R50_SW USA_R50_NW USA_R64_NE USA_R64_SE USA_R64_SW USA_R64_NW USA_POCI USA_ROCI USA_RMW USA_EYE TOKYO_LAT TOKYO_LON TOKYO_GRADE TOKYO_WIND TOKYO_PRES TOKYO_R50_DIR TOKYO_R50_LONG TOKYO_R50_SHORT TOKYO_R30_DIR TOKYO_R30_LONG TOKYO_R30_SHORT TOKYO_LAND CMA_LAT CMA_LON CMA_CAT CMA_WIND CMA_PRES HKO_LAT HKO_LON HKO_CAT HKO_WIND HKO_PRES NEWDELHI_LAT NEWDELHI_LON NEWDELHI_GRADE NEWDELHI_WIND NEWDELHI_PRES NEWDELHI_CI NEWDELHI_DP NEWDELHI_POCI REUNION_LAT REUNION_LON REUNION_TYPE REUNION_WIND REUNION_PRES REUNION_TNUM REUNION_CI REUNION_RMW REUNION_R34_NE REUNION_R34_SE REUNION_R34_SW REUNION_R34_NW REUNION_R50_NE REUNION_R50_SE REUNION_R50_SW REUNION_R50_NW REUNION_R64_NE REUNION_R64_SE REUNION_R64_SW REUNION_R64_NW BOM_LAT BOM_LON BOM_TYPE BOM_WIND BOM_PRES BOM_TNUM BOM_CI BOM_RMW BOM_R34_NE BOM_R34_SE BOM_R34_SW BOM_R34_NW BOM_R50_NE BOM_R50_SE BOM_R50_SW BOM_R50_NW BOM_R64_NE BOM_R64_SE BOM_R64_SW BOM_R64_NW BOM_ROCI BOM_POCI BOM_EYE BOM_POS_METHOD BOM_PRES_METHOD NADI_LAT NADI_LON NADI_CAT NADI_WIND NADI_PRES WELLINGTON_LAT WELLINGTON_LON WELLINGTON_WIND WELLINGTON_PRES DS824_LAT DS824_LON DS824_STAGE DS824_WIND DS824_PRES TD9636_LAT TD9636_LON TD9636_STAGE TD9636_WIND TD9636_PRES TD9635_LAT TD9635_LON TD9635_WIND TD9635_PRES TD9635_ROCI NEUMANN_LAT NEUMANN_LON NEUMANN_CLASS NEUMANN_WIND NEUMANN_PRES MLC_LAT MLC_LON MLC_CLASS MLC_WIND MLC_PRES USA_GUST BOM_GUST BOM_GUST_PER REUNION_GUST REUNION_GUST_PER USA_SEAHGT USA_SEARAD_NE USA_SEARAD_SE USA_SEARAD_SW USA_SEARAD_NW STORM_SPEED STORM_DIR
1962037S19114 1962 14 SI WA NOT_NAMED 1962-02-06 03:00:00 NR -19.2363 113.837 spur-other 302 292 ______________ -1 4 262
1962037S19114 1962 14 SI WA NOT_NAMED 1962-02-06 06:00:00 NR -19.2677 113.610 spur-other 293 293 ______________ -1 4 263
1962037S19114 1962 14 SI WA NOT_NAMED 1962-02-06 09:00:00 NR -19.2921 113.366 spur-other 297 297 ______________ -1 5 265
1962037S19114 1962 14 SI WA NOT_NAMED 1962-02-06 11:00:00 NR -19.3000 113.200 spur-other 302 302 __________O___ -1 -19.3000 113.200 1 5 268
1962037S19114 1962 14 SI WA NOT_NAMED 1962-02-06 12:00:00 NR -19.3021 113.119 spur-other 305 305 __________P___ -1 -19.2979 113.116 1 5 270
1962037S19114 1962 14 SI WA NOT_NAMED 1962-02-06 15:00:00 NR -19.2987 112.869 spur-other 312 312 __________P___ -1 -19.2887 112.863 1 5 273
1962037S19114 1962 14 SI WA NOT_NAMED 1962-02-06 18:00:00 NR -19.2788 112.615 spur-other 325 325 __________P___ -1 -19.2701 112.612 1 5 277
1962037S19114 1962 14 SI WA NOT_NAMED 1962-02-06 21:00:00 NR -19.2390 112.364 spur-other 344 344 __________P___ -1 -19.2354 112.363 1 5 281
1962037S19114 1962 14 SI WA NOT_NAMED 1962-02-06 23:00:00 NR -19.2000 112.200 spur-other 355 355 __________O___ -1 -19.2000 112.200 2 5 285
1962037S19114 1962 14 SI WA NOT_NAMED 1962-02-07 00:00:00 NR -19.1779 112.119 spur-other 360 360 __________P___ -1 -19.1779 112.119 2 5 287
1962037S19114 1962 14 SI WA NOT_NAMED 1962-02-07 01:00:00 NR -19.1530 112.039 spur-other 366 366 __________P___ -1 -19.1530 112.039 2 5 290
1962037S19114 1962 14 SI WA NOT_NAMED 1962-02-07 03:00:00 NR -19.0957 111.881 spur-other 381 381 __________P___ -1 -19.0957 111.881 2 5 294
1962037S19114 1962 14 SI WA NOT_NAMED 1962-02-07 06:00:00 NR -18.9944 111.652 spur-other 403 403 __________P___ -1 -18.9944 111.652 2 5 296
1962037S19114 1962 14 SI WA NOT_NAMED 1962-02-07 08:00:00 NR -18.9193 111.507 spur-other 424 424 __________P___ -1 -18.9193 111.507 2 5 299
1962037S19114 1962 14 SI WA NOT_NAMED 1962-02-07 09:00:00 NR -18.8802 111.436 spur-other 431 431 __________P___ -1 -18.8802 111.436 2 5 302
1962037S19114 1962 14 SI WA NOT_NAMED 1962-02-07 11:00:00 NR -18.8000 111.300 spur-other 446 446 __________O___ -1 -18.8000 111.300 1 4 303
1962037S19114 1962 14 SI WA NOT_NAMED 1962-02-07 12:00:00 NR -18.7616 111.242 spur-other 453 453 __________P___ -1 -18.7616 111.242 1 4 308
1962037S19114 1962 14 SI WA NOT_NAMED 1962-02-07 15:00:00 NR -18.6408 111.084 spur-other 477 477 __________P___ -1 -18.6408 111.084 1 4 310
1962037S19114 1962 14 SI WA NOT_NAMED 1962-02-07 18:00:00 NR -18.5145 110.927 spur-other 499 499 __________P___ -1 -18.5145 110.927 1 4 308
1962037S19114 1962 14 SI WA NOT_NAMED 1962-02-07 21:00:00 NR -18.3857 110.746 spur-other 521 521 __________P___ -1 -18.3857 110.746 1 5 305
1962037S19114 1962 14 SI WA NOT_NAMED 1962-02-07 23:00:00 NR -18.3000 110.600 spur-other 536 536 __________O___ -1 -18.3000 110.600 7 5 301
1962037S19114 1962 14 SI WA NOT_NAMED 1962-02-08 00:00:00 NR -18.2522 110.515 spur-other 543 543 __________P___ -1 -18.2522 110.515 7 6 300
1962037S19114 1962 14 SI WA NOT_NAMED 1962-02-08 01:00:00 NR -18.2035 110.425 spur-other 559 559 __________P___ -1 -18.2035 110.425 7 6 298
1962037S19114 1962 14 SI WA NOT_NAMED 1962-02-08 03:00:00 NR -18.1061 110.230 spur-other 581 581 __________P___ -1 -18.1061 110.230 7 7 295
1962037S19114 1962 14 SI WA NOT_NAMED 1962-02-08 06:00:00 NR -17.9684 109.905 spur-other 611 611 __________P___ -1 -17.9684 109.905 7 7 291
1962037S19114 1962 14 SI WA NOT_NAMED 1962-02-08 09:00:00 NR -17.8547 109.549 spur-other 649 649 __________P___ -1 -17.8547 109.549 7 7 286
1962037S19114 1962 14 SI WA NOT_NAMED 1962-02-08 11:00:00 NR -17.8000 109.300 spur-other 672 672 __________O___ -1 -17.8000 109.300 1 7 282
1962037S19114 1962 14 SI WA NOT_NAMED 1962-02-08 12:00:00 NR -17.7795 109.179 spur-other 679 679 __________P___ -1 -17.7795 109.179 1 7 277
1962037S19114 1962 14 SI WA NOT_NAMED 1962-02-08 15:00:00 NR -17.7440 108.801 spur-other 718 718 __________P___ -1 -17.7440 108.801 1 7 273
1962037S19114 1962 14 SI WA NOT_NAMED 1962-02-08 18:00:00 NR -17.7428 108.402 spur-other 750 750 __________P___ -1 -17.7428 108.402 1 8 268
1962037S19114 1962 14 SI WA NOT_NAMED 1962-02-08 21:00:00 NR -17.7696 107.986 spur-other 777 777 __________P___ -1 -17.7696 107.986 1 8 265
1962037S19114 1962 14 SI WA NOT_NAMED 1962-02-08 23:00:00 NR -17.8000 107.700 spur-other 802 802 __________O___ -1 -17.8000 107.700 1 8 265
1962037S19114 1962 14 SI WA NOT_NAMED 1962-02-09 00:00:00 NR -17.8075 107.557 spur-other 811 811 __________P___ -1 -17.8075 107.557 1 8 266
1962037S19114 1962 14 SI WA NOT_NAMED 1962-02-09 01:00:00 NR -17.8170 107.411 spur-other 828 828 __________P___ -1 -17.8170 107.411 1 8 265
1962037S19114 1962 14 SI WA NOT_NAMED 1962-02-09 03:00:00 NR -17.8435 107.115 spur-other 854 854 __________P___ -1 -17.8435 107.115 1 9 263
1962037S19114 1962 14 SI WA NOT_NAMED 1962-02-09 06:00:00 NR -17.9071 106.663 spur-other 884 884 __________P___ -1 -17.9071 106.663 1 9 259
1962037S19114 1962 14 SI WA NOT_NAMED 1962-02-09 09:00:00 NR -18.0077 106.205 spur-other 924 924 __________P___ -1 -18.0077 106.205 1 9 255
1962037S19114 1962 14 SI WA NOT_NAMED 1962-02-09 11:00:00 NR -18.1000 105.900 spur-other 946 946 __________O___ -1 -18.1000 105.900 1 9 252
1962037S19114 1962 14 SI WA NOT_NAMED 1962-02-09 12:00:00 NR -18.1511 105.745 spur-other 958 958 __________P___ -1 -18.1511 105.745 1 10 248
1962037S19114 1962 14 SI WA NOT_NAMED 1962-02-09 15:00:00 NR -18.3363 105.278 spur-other 989 989 __________P___ -1 -18.3363 105.278 1 10 245
1962037S19114 1962 14 SI WA NOT_NAMED 1962-02-09 18:00:00 NR -18.5614 104.818 spur-other 1018 1018 __________P___ -1 -18.5614 104.818 1 10 241
1962037S19114 1962 14 SI WA NOT_NAMED 1962-02-09 21:00:00 NR -18.8171 104.377 spur-other 1046 1046 __________P___ -1 -18.8171 104.377 1 10 237
1962037S19114 1962 14 SI WA NOT_NAMED 1962-02-09 23:00:00 NR -19.0000 104.100 spur-other 1065 1065 __________O___ -1 -19.0000 104.100 2 9 237
1962037S19114 1962 14 SI WA NOT_NAMED 1962-02-10 00:00:00 NR -19.0714 103.959 spur-other 1071 1071 __________P___ -1 -19.0942 103.968 2 9 242
1962037S19114 1962 14 SI WA NOT_NAMED 1962-02-10 01:00:00 NR -19.1435 103.820 spur-other 1090 1086 __________P___ -1 -19.1898 103.840 2 9 240
1962037S19114 1962 14 SI WA NOT_NAMED 1962-02-10 03:00:00 NR -19.2948 103.552 spur-other 1101 1101 __________P___ -1 -19.3853 103.594 2 9 235
1962037S19114 1962 14 SI WA NOT_NAMED 1962-02-10 06:00:00 NR -19.5607 103.185 spur-other 1129 1129 __________P___ -1 -19.6865 103.247 2 9 226
1962037S19114 1962 14 SI WA NOT_NAMED 1962-02-10 09:00:00 NR -19.9066 102.871 spur-other 1148 1148 __________P___ -1 -19.9937 102.917 2 9 216
1962037S19114 1962 14 SI WA NOT_NAMED 1962-02-10 11:00:00 NR -20.2000 102.700 spur-other 1159 __________O___ -1 -20.2000 102.700 1 10 208

About IBTrACS Database

This database is a web-friendly format of International Best Track Archive for Climate Stewardship (IBTrACS), a global best track data archive curated by NOAA dating back to 1842.

Updated: 2021-10-25